createdAt,value
2022-10-05T00:01:54.189Z,100.00
2022-10-05T00:04:24.903Z,100.00
2022-10-05T00:07:01.903Z,100.00
2022-10-05T00:09:32.792Z,100.00
2022-10-05T00:12:00.551Z,100.00
2022-10-05T00:14:31.865Z,100.00
2022-10-05T00:16:59.607Z,100.00
2022-10-05T00:19:33.570Z,100.00
2022-10-05T00:22:03.860Z,100.00
2022-10-05T00:24:32.868Z,100.00
2022-10-05T00:27:01.909Z,100.00
2022-10-05T00:29:29.720Z,100.00
2022-10-05T00:31:57.418Z,100.00
2022-10-05T00:34:25.100Z,100.00
2022-10-05T00:36:52.854Z,100.00
2022-10-05T00:39:20.733Z,100.00
2022-10-05T00:42:06.163Z,100.00
2022-10-05T00:44:42.003Z,100.00
2022-10-05T00:47:27.069Z,100.00
2022-10-05T00:50:08.286Z,100.00
2022-10-05T00:52:46.631Z,100.00
2022-10-05T00:55:22.652Z,100.00
2022-10-05T00:58:05.970Z,100.00
2022-10-05T01:00:38.409Z,100.00
2022-10-05T01:03:15.454Z,100.00
2022-10-05T01:05:58.243Z,100.00
2022-10-05T01:08:38.277Z,100.00
2022-10-05T01:11:14.787Z,100.00
2022-10-05T01:13:52.245Z,100.00
2022-10-05T01:16:27.663Z,100.00
2022-10-05T01:19:02.443Z,100.00
2022-10-05T01:21:34.955Z,100.00
2022-10-05T01:24:32.935Z,100.00
2022-10-05T01:27:26.069Z,100.00
2022-10-05T01:30:00.418Z,100.00
2022-10-05T01:32:36.886Z,100.00
2022-10-05T01:35:16.394Z,100.00
2022-10-05T01:37:59.211Z,100.00
2022-10-05T01:40:34.579Z,100.00
2022-10-05T01:43:10.245Z,100.00
2022-10-05T01:45:50.813Z,100.00
2022-10-05T01:48:24.700Z,100.00
2022-10-05T01:51:04.922Z,100.00
2022-10-05T01:53:44.274Z,100.00
2022-10-05T01:56:21.260Z,100.00
2022-10-05T01:58:59.860Z,100.00
2022-10-05T02:01:34.806Z,100.00
2022-10-05T02:04:06.940Z,100.00
2022-10-05T02:06:40.895Z,100.00
2022-10-05T02:09:15.583Z,100.00
2022-10-05T02:11:48.618Z,100.00
2022-10-05T02:14:21.454Z,100.00
2022-10-05T02:16:54.034Z,100.00
2022-10-05T02:19:24.510Z,100.00
2022-10-05T02:22:00.455Z,100.00
2022-10-05T02:24:32.663Z,100.00
2022-10-05T02:27:00.735Z,100.00
2022-10-05T02:29:32.991Z,100.00
2022-10-05T02:32:07.839Z,100.00
2022-10-05T02:34:39.630Z,100.00
2022-10-05T02:37:17.997Z,100.00
2022-10-05T02:39:58.820Z,100.00
2022-10-05T02:42:34.234Z,100.00
2022-10-05T02:45:11.257Z,100.00
2022-10-05T02:47:47.690Z,100.00
2022-10-05T02:50:27.076Z,100.00
2022-10-05T02:53:07.024Z,100.00
2022-10-05T02:55:39.771Z,100.00
2022-10-05T02:58:15.954Z,100.00
2022-10-05T03:00:48.825Z,100.00
2022-10-05T03:03:25.770Z,100.00
2022-10-05T03:05:59.361Z,100.00
2022-10-05T03:08:34.006Z,100.00
2022-10-05T03:11:12.256Z,100.00
2022-10-05T03:13:47.719Z,100.00
2022-10-05T03:16:36.916Z,100.00
2022-10-05T03:19:22.937Z,100.00
2022-10-05T03:21:59.877Z,100.00
2022-10-05T03:24:57.780Z,100.00
2022-10-05T03:27:36.636Z,100.00
2022-10-05T03:30:09.471Z,100.00
2022-10-05T03:32:49.949Z,100.00
2022-10-05T03:35:28.535Z,100.00
2022-10-05T03:38:07.132Z,100.00
2022-10-05T03:40:39.554Z,100.00
2022-10-05T03:43:20.618Z,100.00
2022-10-05T03:45:53.234Z,100.00
2022-10-05T03:48:29.902Z,100.00
2022-10-05T03:51:05.202Z,100.00
2022-10-05T03:53:40.360Z,100.00
2022-10-05T03:56:13.943Z,100.00
2022-10-05T03:58:47.039Z,100.00
2022-10-05T04:01:20.493Z,100.00
2022-10-05T04:03:52.796Z,100.00
2022-10-05T04:06:26.567Z,100.00
2022-10-05T04:09:00.247Z,100.00
2022-10-05T04:11:32.862Z,100.00
2022-10-05T04:14:05.921Z,100.00
2022-10-05T04:16:40.242Z,100.00
2022-10-05T04:19:15.316Z,100.00
2022-10-05T04:21:52.073Z,100.00
2022-10-05T04:24:25.445Z,100.00
2022-10-05T04:26:57.342Z,100.00
2022-10-05T04:29:33.676Z,100.00
2022-10-05T04:32:17.546Z,100.00
2022-10-05T04:34:59.226Z,100.00
2022-10-05T04:37:42.088Z,100.00
2022-10-05T04:40:24.109Z,100.00
2022-10-05T04:43:02.810Z,100.00
2022-10-05T04:45:41.865Z,100.00
2022-10-05T04:48:31.401Z,100.00
2022-10-05T04:51:14.610Z,100.00
2022-10-05T04:53:51.152Z,100.00
2022-10-05T04:56:24.897Z,100.00
2022-10-05T04:59:07.620Z,100.00
2022-10-05T05:01:57.139Z,100.00
2022-10-05T05:04:51.886Z,100.00
2022-10-05T05:07:32.311Z,100.00
2022-10-05T05:10:39.563Z,100.00
2022-10-05T05:13:17.946Z,100.00
2022-10-05T05:15:53.660Z,100.00
2022-10-05T05:18:58.331Z,100.00
2022-10-05T05:21:37.959Z,100.00
2022-10-05T05:24:15.928Z,100.00
2022-10-05T05:27:02.257Z,100.00
2022-10-05T05:29:42.847Z,100.00
2022-10-05T05:32:20.731Z,100.00
2022-10-05T05:35:04.639Z,100.00
2022-10-05T05:37:37.659Z,100.00
2022-10-05T05:40:14.322Z,100.00
2022-10-05T05:42:53.331Z,100.00
2022-10-05T05:45:29.665Z,100.00
2022-10-05T05:48:00.490Z,100.00
2022-10-05T05:50:52.045Z,100.00
2022-10-05T05:53:25.259Z,100.00
2022-10-05T05:55:59.196Z,100.00
2022-10-05T05:58:35.069Z,100.00
2022-10-05T06:01:20.297Z,100.00
2022-10-05T06:04:00.614Z,100.00
2022-10-05T06:06:33.098Z,100.00
2022-10-05T06:09:05.142Z,100.00
2022-10-05T06:11:39.460Z,100.00
2022-10-05T06:14:18.504Z,100.00
2022-10-05T06:16:51.717Z,100.00
2022-10-05T06:19:23.283Z,100.00
2022-10-05T06:21:58.633Z,100.00
2022-10-05T06:24:30.907Z,100.00
2022-10-05T06:27:16.771Z,100.00
2022-10-05T06:30:00.231Z,100.00
2022-10-05T06:32:31.345Z,100.00
2022-10-05T06:35:10.708Z,100.00
2022-10-05T06:38:01.692Z,100.00
2022-10-05T06:40:42.801Z,100.00
2022-10-05T06:43:43.186Z,100.00
2022-10-05T06:46:19.391Z,100.00
2022-10-05T06:49:00.106Z,100.00
2022-10-05T06:51:35.115Z,100.00
2022-10-05T06:54:15.135Z,100.00
2022-10-05T06:56:49.571Z,100.00
2022-10-05T06:59:24.771Z,100.00
2022-10-05T07:02:02.945Z,100.00
2022-10-05T07:04:41.951Z,100.00
2022-10-05T07:07:18.170Z,100.00
2022-10-05T07:10:01.141Z,100.00
2022-10-05T07:12:44.667Z,100.00
2022-10-05T07:15:35.162Z,100.00
2022-10-05T07:18:20.347Z,100.00
2022-10-05T07:20:54.222Z,100.00
2022-10-05T07:23:33.855Z,100.00
2022-10-05T07:26:07.562Z,100.00
2022-10-05T07:28:45.401Z,100.00
2022-10-05T07:31:23.903Z,100.00
2022-10-05T07:34:05.035Z,100.00
2022-10-05T07:36:58.419Z,100.00
2022-10-05T07:39:59.019Z,100.00
2022-10-05T07:42:36.672Z,100.00
2022-10-05T07:45:18.955Z,100.00
2022-10-05T07:47:54.253Z,100.00
2022-10-05T07:50:28.191Z,100.00
2022-10-05T07:53:02.291Z,100.00
2022-10-05T07:55:36.760Z,100.00
2022-10-05T07:58:09.362Z,100.00
2022-10-05T08:01:00.555Z,100.00
2022-10-05T08:03:38.595Z,100.00
2022-10-05T08:06:12.748Z,100.00
2022-10-05T08:08:50.095Z,100.00
2022-10-05T08:11:23.012Z,100.00
2022-10-05T08:13:55.577Z,100.00
2022-10-05T08:16:28.267Z,100.00
2022-10-05T08:19:00.796Z,100.00
2022-10-05T08:21:35.242Z,100.00
2022-10-05T08:24:10.815Z,100.00
2022-10-05T08:26:50.624Z,100.00
2022-10-05T08:29:25.167Z,100.00
2022-10-05T08:31:58.370Z,100.00
2022-10-05T08:34:31.014Z,100.00
2022-10-05T08:37:05.034Z,100.00
2022-10-05T08:39:38.351Z,100.00
2022-10-05T08:42:38.147Z,100.00
2022-10-05T08:45:44.182Z,100.00
2022-10-05T08:48:51.939Z,100.00
2022-10-05T08:51:45.200Z,100.00
2022-10-05T08:54:40.364Z,100.00
2022-10-05T08:57:31.442Z,100.00
2022-10-05T09:00:12.681Z,100.00
2022-10-05T09:03:00.350Z,100.00
2022-10-05T09:05:51.793Z,100.00
2022-10-05T09:08:40.781Z,100.00
2022-10-05T09:11:19.280Z,99.56
2022-10-05T09:14:08.478Z,100.00
2022-10-05T09:16:49.713Z,98.82
2022-10-05T09:19:52.566Z,100.00
2022-10-05T09:22:35.957Z,98.61
2022-10-05T09:25:17.172Z,98.17
2022-10-05T09:27:53.741Z,98.91
2022-10-05T09:30:31.881Z,98.31
2022-10-05T09:33:43.582Z,99.54
2022-10-05T09:36:32.376Z,97.29
2022-10-05T09:39:44.486Z,98.65
2022-10-05T09:42:36.457Z,96.65
2022-10-05T09:45:48.629Z,96.33
2022-10-05T09:48:49.500Z,96.76
2022-10-05T09:51:51.132Z,96.84
2022-10-05T09:55:03.078Z,97.48
2022-10-05T09:58:03.524Z,97.54
2022-10-05T10:00:55.640Z,95.55
2022-10-05T10:04:30.352Z,94.39
2022-10-05T10:07:26.253Z,95.38
2022-10-05T10:10:29.269Z,94.55
2022-10-05T10:13:17.909Z,93.72
2022-10-05T10:16:13.121Z,94.24
2022-10-05T10:19:07.721Z,95.06
2022-10-05T10:21:55.360Z,95.01
2022-10-05T10:24:43.840Z,93.99
2022-10-05T10:27:31.476Z,93.01
2022-10-05T10:30:33.181Z,93.05
2022-10-05T10:33:37.219Z,93.96
2022-10-05T10:36:14.536Z,92.96
2022-10-05T10:38:54.191Z,92.37
2022-10-05T10:41:54.261Z,92.57
2022-10-05T10:44:55.266Z,93.77
2022-10-05T10:47:39.902Z,91.80
2022-10-05T10:50:33.633Z,93.23
2022-10-05T10:53:33.698Z,91.05
2022-10-05T10:56:22.659Z,92.27
2022-10-05T10:59:17.419Z,92.61
2022-10-05T11:02:01.841Z,91.49
2022-10-05T11:04:47.808Z,92.75
2022-10-05T11:07:37.122Z,92.18
2022-10-05T11:10:41.815Z,90.21
2022-10-05T11:13:32.381Z,89.21
2022-10-05T11:16:27.210Z,90.16
2022-10-05T11:19:12.604Z,91.56
2022-10-05T11:21:48.485Z,89.75
2022-10-05T11:24:43.722Z,90.40
2022-10-05T11:27:50.208Z,90.92
2022-10-05T11:30:57.020Z,88.71
2022-10-05T11:33:59.002Z,88.28
2022-10-05T11:36:53.385Z,86.59
2022-10-05T11:39:38.830Z,87.25
2022-10-05T11:42:50.066Z,86.69
2022-10-05T11:45:23.949Z,87.23
2022-10-05T11:48:21.376Z,88.39
2022-10-05T11:51:09.617Z,86.01
2022-10-05T11:53:40.993Z,87.36
2022-10-05T11:56:20.154Z,85.01
2022-10-05T11:58:54.444Z,83.92
2022-10-05T12:01:27.992Z,83.83
2022-10-05T12:04:04.146Z,83.54
2022-10-05T12:06:51.453Z,83.12
2022-10-05T12:09:34.612Z,81.57
2022-10-05T12:12:14.348Z,81.16
2022-10-05T12:14:51.393Z,81.79
2022-10-05T12:17:30.923Z,82.67
2022-10-05T12:20:03.149Z,84.06
2022-10-05T12:22:38.494Z,80.20
2022-10-05T12:25:21.664Z,77.21
2022-10-05T12:27:53.295Z,78.66
2022-10-05T12:30:29.628Z,77.80
2022-10-05T12:33:07.626Z,75.73
2022-10-05T12:35:48.188Z,75.74
2022-10-05T12:38:28.510Z,77.48
2022-10-05T12:41:05.745Z,76.61
2022-10-05T12:43:44.785Z,76.64
2022-10-05T12:46:23.367Z,75.89
2022-10-05T12:49:20.408Z,73.85
2022-10-05T12:51:56.817Z,75.89
2022-10-05T12:54:34.934Z,74.79
2022-10-05T12:57:12.464Z,73.89
2022-10-05T12:59:43.416Z,71.95
2022-10-05T13:02:26.251Z,74.82
2022-10-05T13:05:02.408Z,70.76
2022-10-05T13:07:52.732Z,72.17
2022-10-05T13:10:32.216Z,73.10
2022-10-05T13:13:14.115Z,71.16
2022-10-05T13:15:50.993Z,70.19
2022-10-05T13:18:28.314Z,68.80
2022-10-05T13:21:05.453Z,71.65
2022-10-05T13:23:44.877Z,69.33
2022-10-05T13:26:18.838Z,71.73
2022-10-05T13:28:53.862Z,69.45
2022-10-05T13:31:26.746Z,66.50
2022-10-05T13:34:04.223Z,66.60
2022-10-05T13:36:43.533Z,66.91
2022-10-05T13:39:22.566Z,67.68
2022-10-05T13:41:58.062Z,65.77
2022-10-05T13:44:35.507Z,63.71
2022-10-05T13:47:09.396Z,64.93
2022-10-05T13:49:44.293Z,65.00
2022-10-05T13:52:24.875Z,67.22
2022-10-05T13:54:59.813Z,64.83
2022-10-05T13:57:53.794Z,64.63
2022-10-05T14:00:26.250Z,65.97
2022-10-05T14:02:56.853Z,65.00
2022-10-05T14:05:27.098Z,63.66
2022-10-05T14:07:58.422Z,64.51
2022-10-05T14:10:38.219Z,61.95
2022-10-05T14:13:23.455Z,62.44
2022-10-05T14:16:04.374Z,62.71
2022-10-05T14:18:33.999Z,62.20
2022-10-05T14:21:18.157Z,63.37
2022-10-05T14:23:46.499Z,66.32
2022-10-05T14:26:32.427Z,67.47
2022-10-05T14:29:04.164Z,65.44
2022-10-05T14:31:36.078Z,65.25
2022-10-05T14:34:33.425Z,65.89
2022-10-05T14:37:04.738Z,65.85
2022-10-05T14:39:35.492Z,64.91
2022-10-05T14:42:14.661Z,65.15
2022-10-05T14:44:43.709Z,68.05
2022-10-05T14:47:22.571Z,68.02
2022-10-05T14:50:10.529Z,68.07
2022-10-05T14:52:41.090Z,68.42
2022-10-05T14:55:47.867Z,69.24
2022-10-05T14:58:41.454Z,69.72
2022-10-05T15:01:17.504Z,70.20
2022-10-05T15:03:55.110Z,69.86
2022-10-05T15:06:29.307Z,71.68
2022-10-05T15:09:32.213Z,70.42
2022-10-05T15:12:03.220Z,71.26
2022-10-05T15:14:33.526Z,71.23
2022-10-05T15:17:05.512Z,72.39
2022-10-05T15:19:49.623Z,72.65
2022-10-05T15:22:29.014Z,73.38
2022-10-05T15:25:03.902Z,73.90
2022-10-05T15:27:43.551Z,73.99
2022-10-05T15:30:13.838Z,75.19
2022-10-05T15:32:58.626Z,75.39
2022-10-05T15:35:45.604Z,75.31
2022-10-05T15:38:21.071Z,76.21
2022-10-05T15:41:07.471Z,78.09
2022-10-05T15:43:47.139Z,78.07
2022-10-05T15:46:21.990Z,77.70
2022-10-05T15:49:01.822Z,78.19
2022-10-05T15:51:41.545Z,78.38
2022-10-05T15:54:37.165Z,78.93
2022-10-05T15:57:12.160Z,80.18
2022-10-05T15:59:50.820Z,80.56
2022-10-05T16:02:22.385Z,80.25
2022-10-05T16:05:04.940Z,81.89
2022-10-05T16:07:57.837Z,81.50
2022-10-05T16:10:27.323Z,81.20
2022-10-05T16:13:11.738Z,80.85
2022-10-05T16:15:43.844Z,80.99
2022-10-05T16:18:32.536Z,82.73
2022-10-05T16:21:14.607Z,82.17
2022-10-05T16:23:57.011Z,81.31
2022-10-05T16:26:36.434Z,82.12
2022-10-05T16:29:10.387Z,82.30
2022-10-05T16:31:46.493Z,82.87
2022-10-05T16:34:28.281Z,82.68
2022-10-05T16:37:04.474Z,83.00
2022-10-05T16:39:56.855Z,82.83
2022-10-05T16:42:43.058Z,83.84
2022-10-05T16:45:27.890Z,84.20
2022-10-05T16:48:06.051Z,85.12
2022-10-05T16:50:44.075Z,84.54
2022-10-05T16:53:19.374Z,82.76
2022-10-05T16:55:50.787Z,82.98
2022-10-05T16:58:25.571Z,82.46
2022-10-05T17:01:09.389Z,82.31
2022-10-05T17:03:50.346Z,80.47
2022-10-05T17:06:41.236Z,81.28
2022-10-05T17:09:43.637Z,80.50
2022-10-05T17:12:27.609Z,81.26
2022-10-05T17:15:10.192Z,81.55
2022-10-05T17:17:52.893Z,82.14
2022-10-05T17:20:41.618Z,82.61
2022-10-05T17:23:29.169Z,82.99
2022-10-05T17:26:09.310Z,83.49
2022-10-05T17:28:40.740Z,83.88
2022-10-05T17:31:16.197Z,85.42
2022-10-05T17:34:28.190Z,86.02
2022-10-05T17:36:59.756Z,86.36
2022-10-05T17:39:47.546Z,86.77
2022-10-05T17:42:57.901Z,86.96
2022-10-05T17:45:58.008Z,87.29
2022-10-05T17:48:45.119Z,86.06
2022-10-05T17:52:13.895Z,85.54
2022-10-05T17:55:30.459Z,85.79
2022-10-05T17:58:19.873Z,86.40
2022-10-05T18:01:06.895Z,85.82
2022-10-05T18:03:40.909Z,86.26
2022-10-05T18:06:37.369Z,86.09
2022-10-05T18:09:21.740Z,85.87
2022-10-05T18:12:25.989Z,85.79
2022-10-05T18:14:58.500Z,85.38
2022-10-05T18:17:42.155Z,84.98
2022-10-05T18:20:35.120Z,85.39
2022-10-05T18:23:30.092Z,85.31
2022-10-05T18:26:06.157Z,85.10
2022-10-05T18:28:48.961Z,85.24
2022-10-05T18:31:29.127Z,85.83
2022-10-05T18:34:14.195Z,86.45
2022-10-05T18:36:59.705Z,86.88
2022-10-05T18:39:48.785Z,87.02
2022-10-05T18:42:27.308Z,87.20
2022-10-05T18:44:59.161Z,86.41
2022-10-05T18:47:40.892Z,86.86
2022-10-05T18:50:26.105Z,86.52
2022-10-05T18:53:03.534Z,85.74
2022-10-05T18:55:34.496Z,85.80
2022-10-05T18:58:18.141Z,86.12
2022-10-05T19:01:01.749Z,86.52
2022-10-05T19:03:42.021Z,85.74
2022-10-05T19:06:18.011Z,85.57
2022-10-05T19:08:54.737Z,86.05
2022-10-05T19:11:30.471Z,85.53
2022-10-05T19:14:06.514Z,85.48
2022-10-05T19:16:49.744Z,85.17
2022-10-05T19:19:37.510Z,86.16
2022-10-05T19:22:14.319Z,86.30
2022-10-05T19:24:49.303Z,85.60
2022-10-05T19:27:27.283Z,86.10
2022-10-05T19:30:12.114Z,86.18
2022-10-05T19:32:50.450Z,85.75
2022-10-05T19:35:32.204Z,86.12
2022-10-05T19:38:15.666Z,85.01
2022-10-05T19:40:56.459Z,85.15
2022-10-05T19:43:45.618Z,85.05
2022-10-05T19:46:25.023Z,85.29
2022-10-05T19:48:54.386Z,85.37
2022-10-05T19:51:30.934Z,84.66
2022-10-05T19:54:01.824Z,84.94
2022-10-05T19:56:33.578Z,84.41
2022-10-05T19:59:14.141Z,85.09
2022-10-05T20:01:50.574Z,84.24
2022-10-05T20:04:33.035Z,84.34
2022-10-05T20:07:02.760Z,84.73
2022-10-05T20:09:49.395Z,84.34
2022-10-05T20:12:17.359Z,84.28
2022-10-05T20:15:05.819Z,84.53
2022-10-05T20:17:50.846Z,84.69
2022-10-05T20:20:30.893Z,84.51
2022-10-05T20:23:21.746Z,85.04
2022-10-05T20:26:09.741Z,85.47
2022-10-05T20:28:38.283Z,85.43
2022-10-05T20:31:08.398Z,85.26
2022-10-05T20:33:36.085Z,85.72
2022-10-05T20:36:04.464Z,85.19
2022-10-05T20:38:40.037Z,85.07
2022-10-05T20:41:08.748Z,84.95
2022-10-05T20:43:39.004Z,85.10
2022-10-05T20:46:07.572Z,85.18
2022-10-05T20:48:36.024Z,85.98
2022-10-05T20:51:04.173Z,85.96
2022-10-05T20:53:33.546Z,86.38
2022-10-05T20:56:02.359Z,86.31
2022-10-05T20:58:30.607Z,86.82
2022-10-05T21:01:18.967Z,86.68
2022-10-05T21:03:47.495Z,86.45
2022-10-05T21:06:15.231Z,86.71
2022-10-05T21:08:46.719Z,86.75
2022-10-05T21:11:14.769Z,87.07
2022-10-05T21:13:45.561Z,87.09
2022-10-05T21:16:13.989Z,87.39
2022-10-05T21:18:41.980Z,88.09
2022-10-05T21:21:09.674Z,87.97
2022-10-05T21:23:37.483Z,88.56
2022-10-05T21:26:07.314Z,88.37
2022-10-05T21:28:35.383Z,88.58
2022-10-05T21:31:03.062Z,88.68
2022-10-05T21:33:31.157Z,89.11
2022-10-05T21:35:59.099Z,88.91
2022-10-05T21:38:27.222Z,89.50
2022-10-05T21:40:55.363Z,90.13
2022-10-05T21:43:25.195Z,89.62
2022-10-05T21:45:55.131Z,90.48
2022-10-05T21:48:23.771Z,91.27
2022-10-05T21:50:53.600Z,92.35
2022-10-05T21:53:23.798Z,93.80
2022-10-05T21:55:52.596Z,94.27
2022-10-05T21:58:22.671Z,96.74
2022-10-05T22:00:51.742Z,100.00
2022-10-05T22:03:19.511Z,100.00
2022-10-05T22:05:47.191Z,100.00
2022-10-05T22:08:21.825Z,100.00
2022-10-05T22:10:49.871Z,100.00
2022-10-05T22:13:17.671Z,100.00
2022-10-05T22:15:45.289Z,100.00
2022-10-05T22:18:18.139Z,100.00
2022-10-05T22:20:46.512Z,100.00
2022-10-05T22:23:14.208Z,100.00
2022-10-05T22:25:42.197Z,100.00
2022-10-05T22:28:13.115Z,100.00
2022-10-05T22:30:41.526Z,100.00
2022-10-05T22:33:09.424Z,100.00
2022-10-05T22:35:38.456Z,100.00
2022-10-05T22:38:06.586Z,100.00
2022-10-05T22:40:34.263Z,100.00
2022-10-05T22:43:01.933Z,100.00
2022-10-05T22:45:32.548Z,100.00
2022-10-05T22:48:00.565Z,100.00
2022-10-05T22:50:28.308Z,100.00
2022-10-05T22:52:57.346Z,100.00
2022-10-05T22:55:25.541Z,100.00
2022-10-05T22:57:53.386Z,100.00
2022-10-05T23:00:27.617Z,100.00
2022-10-05T23:02:55.463Z,100.00
2022-10-05T23:05:23.183Z,100.00
2022-10-05T23:07:50.777Z,100.00
2022-10-05T23:10:20.032Z,100.00
2022-10-05T23:13:00.348Z,100.00
2022-10-05T23:15:28.595Z,100.00
2022-10-05T23:17:57.353Z,100.00
2022-10-05T23:20:25.974Z,100.00
2022-10-05T23:22:53.759Z,100.00
2022-10-05T23:25:23.190Z,100.00
2022-10-05T23:27:50.813Z,100.00
2022-10-05T23:30:18.645Z,100.00
2022-10-05T23:32:46.871Z,100.00
2022-10-05T23:35:14.618Z,100.00
2022-10-05T23:37:44.268Z,100.00
2022-10-05T23:40:13.738Z,100.00
2022-10-05T23:42:43.107Z,100.00
2022-10-05T23:45:12.832Z,100.00
2022-10-05T23:47:40.986Z,100.00
2022-10-05T23:50:10.247Z,100.00
2022-10-05T23:52:37.907Z,100.00
2022-10-05T23:55:06.995Z,100.00
2022-10-05T23:57:34.695Z,100.00
